• Join FlightAware (Why Join?)
  • Login
  • US Flag 
02:34PM EDT


 

Airport Tracker/Info


-or-


 

Live Flight TrackerFlight Track Log ✈ N789EX ✈ 18-Mar-2014 ✈ KMWH - KBFI

Flight Track Log - Related Links

Times and Time Zones

All times are in EDT time to prevent confusion due to time zone crossing. See the N789EX flight status page for this flight to view local times or setup timezone preferences in your user account.

Time Position Orientation Groundspeed Altitude Reporting Facility
EDT Latitude Longitude Course Direction KTS MPH feet Rate Location/Type
03:01PM 47.4219 -119.3306 282° West 247 284 9,800  Level Seattle Center
03:02PM 47.4392 -119.4458 282° West 300 345 11,400 840 Climbing Seattle Center
03:08PM 47.6519 -120.3230 289° West 410 472 15,700 600 Climbing FlightAware ADS-B
03:09PM 47.6870 -120.4720 289° West 411 473 15,700  Level FlightAware ADS-B
03:09PM 47.7058 -120.5510 289° West 411 473 15,700  Level FlightAware ADS-B
03:10PM 47.7253 -120.6350 289° West 409 471 15,700  Level FlightAware ADS-B
03:10PM 47.7441 -120.7150 289° West 412 474 15,700  Level FlightAware ADS-B
03:11PM 47.7633 -120.7980 289° West 415 478 15,700 -120 Level FlightAware ADS-B
03:11PM 47.7822 -120.8790 289° West 417 480 15,600 -120 Descending FlightAware ADS-B
03:12PM 47.8011 -120.9610 289° West 416 479 15,600  Level FlightAware ADS-B
03:12PM 47.8199 -121.0430 289° West 417 480 15,600 -120 Level FlightAware ADS-B
03:13PM 47.8383 -121.1230 289° West 389 448 15,500 -420 Descending FlightAware ADS-B
03:13PM 47.8468 -121.1620 286° West 382 440 15,300 -1,500 Descending FlightAware ADS-B
03:13PM 47.8539 -121.2080 281° West 380 437 14,700 -1,980 Descending FlightAware ADS-B
03:13PM 47.8580 -121.2490 277° West 377 434 14,200 -1,920 Descending FlightAware ADS-B
03:14PM 47.8629 -121.3270 275° West 371 427 13,200 -2,040 Descending FlightAware ADS-B
03:14PM 47.8677 -121.4030 276° West 362 417 12,200 -1,800 Descending FlightAware ADS-B
03:15PM 47.8725 -121.4770 275° West 353 406 11,400 -1,320 Descending FlightAware ADS-B
03:15PM 47.8734 -121.4920 275° West 347 399 11,400 -420 Level FlightAware ADS-B (CYVR)
03:15PM 47.8768 -121.5470 275° West 327 376 11,200 -480 Descending FlightAware ADS-B
03:16PM 47.8804 -121.6070 275° West 306 352 11,000 -540 Descending FlightAware ADS-B
03:16PM 47.8808 -121.6200 271° West 301 346 10,900 -600 Descending FlightAware ADS-B
03:16PM 47.8803 -121.6300 265° West 296 341 10,900  Level FlightAware ADS-B
03:16PM 47.8265 -121.0713 99° East 287 330 10,900 -1,020 Level FlightAware ADS-B (CYWH)
03:16PM 47.8790 -121.6420 259° West 290 334 10,800 -1,500 Descending FlightAware ADS-B
03:17PM 47.8688 -121.6970 253° West 269 310 10,100 -1,740 Descending FlightAware ADS-B
03:17PM 47.8631 -121.7240 253° West 267 307 9,500 -2,400 Descending FlightAware ADS-B
03:17PM 47.8579 -121.7500 254° West 265 305 8,900 -2,220 Descending FlightAware ADS-B
03:17PM 47.8529 -121.7770 254° West 264 304 8,400 -1,800 Descending FlightAware ADS-B
03:18PM 47.8479 -121.8030 255° West 267 307 8,000 -1,380 Descending FlightAware ADS-B
03:18PM 47.8426 -121.8320 255° West 264 304 7,700 -1,200 Descending FlightAware ADS-B
03:18PM 47.8378 -121.8570 255° West 263 303 7,400 -1,080 Descending FlightAware ADS-B
03:18PM 47.8383 -121.8551 255° West 264 304 7,400 -1,200 Level FlightAware ADS-B (CYVR)
03:18PM 47.8346 -121.8750 255° West 265 305 7,200 -1,440 Descending FlightAware ADS-B
03:19PM 47.8308 -121.8970 256° West 264 304 6,900 -1,500 Descending FlightAware ADS-B
03:19PM 47.8264 -121.9240 256° West 263 303 6,500 -1,920 Descending FlightAware ADS-B
03:19PM 47.8224 -121.9480 257° West 264 304 6,000 -2,100 Descending FlightAware ADS-B
03:19PM 47.8184 -121.9740 258° West 263 303 5,500 -2,040 Descending FlightAware ADS-B
03:20PM 47.8143 -122.0020 258° West 260 299 5,000 -1,800 Descending FlightAware ADS-B
03:20PM 47.8104 -122.0280 257° West 257 296 4,600 -1,380 Descending FlightAware ADS-B
03:20PM 47.8064 -122.0540 257° West 253 291 4,300 -1,200 Descending FlightAware ADS-B
03:20PM 47.8046 -122.0660 255° West 251 289 4,200 -600 Descending FlightAware ADS-B
03:20PM 47.8029 -122.0740 252° West 250 288 4,200 -540 Level FlightAware ADS-B
03:20PM 47.8004 -122.0840 249° West 248 285 4,100 -1,380 Descending FlightAware ADS-B
03:21PM 47.7937 -122.1080 247° West 245 282 3,700 -1,380 Descending FlightAware ADS-B
03:21PM 47.7868 -122.1320 247° West 245 282 3,400 -1,380 Descending FlightAware ADS-B
03:21PM 47.7801 -122.1560 248° West 247 284 3,000 -1,260 Descending FlightAware ADS-B
03:21PM 47.7743 -122.1770 248° West 244 281 2,800 -600 Descending FlightAware ADS-B
03:22PM 47.7675 -122.2030 249° West 235 270 2,700 -540 Descending FlightAware ADS-B
03:22PM 47.7611 -122.2280 249° West 229 264 2,500 -780 Descending FlightAware ADS-B
03:22PM 47.7555 -122.2500 249° West 221 254 2,300 -660 Descending FlightAware ADS-B
03:23PM 47.7478 -122.2810 250° West 220 253 2,100 -480 Descending FlightAware ADS-B
03:23PM 47.7413 -122.3070 250° West 200 230 2,000 -540 Descending FlightAware ADS-B
03:23PM 47.7356 -122.3290 250° West 198 228 1,800 -360 Descending FlightAware ADS-B
03:24PM 47.7303 -122.3510 250° West 189 217 1,800  Level FlightAware ADS-B
03:24PM 47.7197 -122.3870 244° Southwest 183 211 1,800  Level FlightAware ADS-B
03:24PM 47.7158 -122.3970 239° Southwest 179 206 1,800  Level FlightAware ADS-B
03:25PM 47.6709 -122.4200 174° South 177 204 1,800  Level FlightAware ADS-B
03:25PM 47.6625 -122.4150 153° Southeast 182 209 1,800  Level FlightAware ADS-B
03:26PM 47.6482 -122.4030 150° Southeast 181 208 1,800  Level FlightAware ADS-B
03:26PM 47.6394 -122.3950 149° Southeast 165 190 1,800  Level FlightAware ADS-B
03:26PM 47.6316 -122.3880 150° Southeast 160 184 1,800 -480 Level FlightAware ADS-B
03:26PM 47.6228 -122.3810 150° Southeast 152 175 1,600 -780 Descending FlightAware ADS-B
03:27PM 47.6079 -122.3680 150° Southeast 150 173 1,300 -900 Descending FlightAware ADS-B
03:27PM 47.5984 -122.3600 150° Southeast 151 174 1,000 -960 Descending FlightAware ADS-B
03:27PM 47.5879 -122.3510 150° Southeast 153 176 800 -360 Descending FlightAware ADS-B
03:28PM 47.5689 -122.3383 150° Southeast 148 170 700 -540 Descending Seattle Center
03:28PM 47.5519 -122.3217 146° Southeast 153 176 300 -420 Descending Seattle Center
03:29PM 47.5183 -122.2928 150° Southeast 153 176 100 -240 Descending Seattle Center
03:31PM 47.5167 -122.3000 270° West  Level FlightAware Approximate